Time;durP1;ratioP1;P1;durP2;ratioP2;P2;SDS_P1;SDS_P2;PMS_P1;PMS_P2;Temp;Humidity;BMP_temperature;BMP_pressure;BME280_temperature;BME280_humidity;BME280_pressure;Samples;Min_cycle;Max_cycle;Signal;HPM_P1;HPM_P2
2022/10/21 00:02:02;;;;;;;1.13;0.73;;;;;;;13.37;100.00;101255.03;10637888;28;20054;-80
2022/10/21 00:07:04;;;;;;;1.50;0.80;;;;;;;13.39;100.00;101258.56;10638512;27;20043;-80
2022/10/21 00:12:05;;;;;;;1.17;0.77;;;;;;;13.44;100.00;101241.44;10645818;27;20047;-80
2022/10/21 00:17:07;;;;;;;0.08;0.08;;;;;;;13.51;100.00;101238.13;10608504;27;20122;-80
2022/10/21 00:22:10;;;;;;;2.42;0.65;;;;;;;13.52;100.00;101223.44;10640544;27;20525;-80
2022/10/21 00:27:11;;;;;;;0.82;0.50;;;;;;;13.58;100.00;101233.91;10621127;27;20063;-80
2022/10/21 00:32:13;;;;;;;1.13;0.73;;;;;;;13.61;100.00;101229.66;10635281;27;20076;-80
2022/10/21 00:37:16;;;;;;;1.17;1.08;;;;;;;13.66;100.00;101236.66;10607541;27;20114;-80
2022/10/21 00:42:20;;;;;;;0.52;0.45;;;;;;;13.70;100.00;101235.84;10625529;27;20058;-80
2022/10/21 00:47:21;;;;;;;2.05;1.30;;;;;;;13.66;100.00;101242.69;10647218;27;20035;-80
2022/10/21 00:52:24;;;;;;;1.80;0.77;;;;;;;13.56;100.00;101266.66;10603686;27;20126;-80
2022/10/21 00:57:26;;;;;;;0.75;0.60;;;;;;;13.46;100.00;101286.31;10630586;27;20043;-80
2022/10/21 01:02:28;;;;;;;3.10;1.00;;;;;;;13.44;100.00;101303.53;10624770;27;20049;-80
2022/10/21 01:07:30;;;;;;;3.80;1.75;;;;;;;13.51;100.00;101314.88;10623448;27;20039;-81
2022/10/21 01:12:56;;;;;;;5.40;2.42;;;;;;;13.45;100.00;101329.44;10599161;27;20108;-80
2022/10/21 01:18:07;;;;;;;1.73;0.88;;;;;;;13.46;100.00;101356.19;10621006;27;20043;-80
2022/10/21 01:23:36;;;;;;;2.63;1.02;;;;;;;13.37;100.00;101343.00;10601091;27;20163;-80
2022/10/21 01:29:03;;;;;;;0.52;0.45;;;;;;;13.27;100.00;101355.78;10611065;27;20067;-79
2022/10/21 01:34:24;;;;;;;1.83;0.50;;;;;;;13.23;100.00;101355.66;10623244;27;20039;-80
2022/10/21 01:39:37;;;;;;;6.13;0.93;;;;;;;13.24;100.00;101368.63;10627790;27;20103;-79
2022/10/21 01:44:49;;;;;;;4.07;2.15;;;;;;;13.17;100.00;101356.41;10614939;27;20047;-80
2022/10/21 01:50:05;;;;;;;1.25;0.88;;;;;;;13.12;100.00;101368.38;10647268;27;20062;-80
2022/10/21 01:55:11;;;;;;;2.92;1.63;;;;;;;13.16;100.00;101375.34;10610193;27;20039;-80
2022/10/21 02:00:13;;;;;;;1.85;1.45;;;;;;;13.10;100.00;101380.38;10648572;27;20092;-80
2022/10/21 02:05:18;;;;;;;2.78;1.17;;;;;;;13.05;100.00;101375.09;10640637;27;20390;-79
2022/10/21 02:10:20;;;;;;;3.30;1.17;;;;;;;13.09;100.00;101369.16;10641939;27;20081;-79
2022/10/21 02:15:24;;;;;;;0.95;0.80;;;;;;;13.00;100.00;101363.78;10650545;27;20043;-80
2022/10/21 02:20:27;;;;;;;0.73;0.57;;;;;;;13.02;100.00;101356.94;10647230;27;20433;-80
2022/10/21 02:25:33;;;;;;;2.85;1.05;;;;;;;13.00;100.00;101345.69;10635602;27;20047;-79
2022/10/21 02:30:58;;;;;;;1.05;0.75;;;;;;;13.02;100.00;101351.75;10643723;27;20482;-79
2022/10/21 02:36:21;;;;;;;1.23;0.65;;;;;;;13.08;100.00;101351.00;10640792;27;20039;-79
2022/10/21 02:41:24;;;;;;;1.10;0.93;;;;;;;12.94;100.00;101330.88;10602598;27;20143;-80
2022/10/21 02:46:34;;;;;;;0.77;0.70;;;;;;;12.96;100.00;101331.81;10640885;27;20050;-79
2022/10/21 02:51:36;;;;;;;;;;;;;;;12.97;100.00;101343.00;10643407;27;20053;-79
2022/10/21 02:56:37;;;;;;;0.75;0.73;;;;;;;12.95;100.00;101342.97;10602525;27;19947;-80
2022/10/21 03:01:39;;;;;;;2.50;1.08;;;;;;;12.95;100.00;101335.22;10638278;27;20043;-80
2022/10/21 03:06:40;;;;;;;1.52;0.98;;;;;;;12.97;100.00;101309.38;10635515;27;20035;-79
2022/10/21 03:11:42;;;;;;;0.93;0.77;;;;;;;12.92;100.00;101311.84;10605549;27;20047;-79
2022/10/21 03:16:43;;;;;;;1.02;0.82;;;;;;;12.93;100.00;101313.63;10591206;27;20069;-79
2022/10/21 03:21:45;;;;;;;4.22;1.27;;;;;;;12.88;100.00;101311.78;10613459;27;20074;-79
2022/10/21 03:26:46;;;;;;;1.60;1.08;;;;;;;12.94;100.00;101307.59;10641265;27;20035;-79
2022/10/21 03:31:48;;;;;;;0.77;0.73;;;;;;;12.92;100.00;101296.34;10646804;27;20036;-79
2022/10/21 03:36:49;;;;;;;2.40;0.35;;;;;;;12.93;100.00;101290.34;10629976;27;20046;-79
2022/10/21 03:41:51;;;;;;;1.40;0.45;;;;;;;12.88;100.00;101297.13;10626388;27;20054;-79
2022/10/21 03:46:52;;;;;;;3.75;0.95;;;;;;;12.95;100.00;101293.84;10640037;28;20500;-79
2022/10/21 03:51:54;;;;;;;2.95;0.77;;;;;;;12.99;100.00;101289.59;10637543;28;20079;-80
2022/10/21 03:56:56;;;;;;;4.72;1.23;;;;;;;12.96;100.00;101300.75;10621512;28;20446;-79
2022/10/21 04:01:57;;;;;;;4.68;1.70;;;;;;;12.84;100.00;101290.16;10609695;28;20161;-79
2022/10/21 04:06:59;;;;;;;0.55;0.47;;;;;;;12.94;100.00;101283.47;10602113;28;20490;-78
2022/10/21 04:12:00;;;;;;;1.30;0.70;;;;;;;12.87;100.00;101281.59;10639787;28;20486;-79
2022/10/21 04:17:02;;;;;;;1.33;0.93;;;;;;;12.85;100.00;101286.69;10615024;27;20050;-80
2022/10/21 04:22:08;;;;;;;0.88;0.43;;;;;;;12.83;100.00;101283.22;10624666;28;20039;-80
2022/10/21 04:27:09;;;;;;;5.20;2.40;;;;;;;12.72;100.00;101279.50;10607893;28;20073;-79
2022/10/21 04:32:11;;;;;;;2.35;1.70;;;;;;;12.72;100.00;101269.16;10625736;28;20062;-79
2022/10/21 04:37:12;;;;;;;1.35;0.85;;;;;;;12.74;100.00;101262.31;10612431;28;20049;-79
2022/10/21 04:42:14;;;;;;;2.13;1.55;;;;;;;12.67;100.00;101264.78;10608233;28;20035;-79
2022/10/21 04:47:16;;;;;;;3.47;1.20;;;;;;;12.66;100.00;101257.84;10625327;28;20050;-80
2022/10/21 04:52:17;;;;;;;0.30;0.30;;;;;;;12.59;100.00;101268.00;10625824;27;20043;-79
2022/10/21 04:57:19;;;;;;;1.02;0.93;;;;;;;12.52;100.00;101257.53;10605883;27;20075;-79
2022/10/21 05:02:21;;;;;;;1.58;0.65;;;;;;;12.59;100.00;101268.00;10634417;27;20047;-79
2022/10/21 05:07:26;;;;;;;5.22;0.90;;;;;;;12.47;100.00;101263.44;10619140;27;20402;-79
2022/10/21 05:12:27;;;;;;;0.70;0.63;;;;;;;12.33;100.00;101255.34;10638328;27;20063;-79
2022/10/21 05:17:29;;;;;;;1.20;0.73;;;;;;;12.29;100.00;101258.69;10619600;27;20057;-80
2022/10/21 05:22:31;;;;;;;0.17;0.17;;;;;;;12.33;100.00;101266.53;10621001;27;20050;-79
2022/10/21 05:27:33;;;;;;;2.40;0.98;;;;;;;12.26;100.00;101251.72;10613023;27;20066;-79
2022/10/21 05:32:41;;;;;;;1.30;1.20;;;;;;;12.18;100.00;101255.84;10635331;27;20053;-79
2022/10/21 05:37:43;;;;;;;1.52;0.95;;;;;;;12.14;100.00;101264.34;10618232;27;20058;-79
2022/10/21 05:42:44;;;;;;;2.45;1.65;;;;;;;12.12;100.00;101255.69;10598084;27;20043;-79
2022/10/21 05:47:46;;;;;;;1.17;0.90;;;;;;;12.08;100.00;101243.53;10616286;27;20094;-79
2022/10/21 05:52:47;;;;;;;2.60;1.17;;;;;;;12.03;100.00;101254.63;10618606;27;20063;-79
2022/10/21 05:57:49;;;;;;;1.10;0.93;;;;;;;11.95;100.00;101248.34;10617447;27;20066;-79
2022/10/21 06:02:55;;;;;;;0.63;0.63;;;;;;;11.95;100.00;101258.66;10614926;27;20442;-79
2022/10/21 06:07:57;;;;;;;0.32;0.30;;;;;;;11.97;100.00;101253.59;10610615;27;20058;-78
2022/10/21 06:12:58;;;;;;;0.35;0.35;;;;;;;11.90;100.00;101249.94;10608436;27;20078;-79
2022/10/21 06:18:00;;;;;;;0.75;0.75;;;;;;;11.89;100.00;101249.06;10592587;27;20057;-79
2022/10/21 06:23:01;;;;;;;1.15;0.43;;;;;;;11.90;100.00;101256.00;10611112;27;20142;-80
2022/10/21 06:28:03;;;;;;;2.63;0.38;;;;;;;11.88;100.00;101251.59;10609361;27;20043;-79
2022/10/21 06:33:04;;;;;;;2.88;1.30;;;;;;;11.93;100.00;101250.03;10602041;27;20126;-80
2022/10/21 06:38:06;;;;;;;0.50;0.30;;;;;;;11.81;100.00;101245.41;10600541;27;20078;-79
2022/10/21 06:43:08;;;;;;;2.63;0.40;;;;;;;11.88;100.00;101256.75;10594678;27;20158;-79
2022/10/21 06:48:09;;;;;;;0.30;0.20;;;;;;;12.00;100.00;101266.56;10607642;27;20043;-79
2022/10/21 06:53:17;;;;;;;1.77;1.10;;;;;;;12.01;100.00;101274.38;10609234;27;20521;-79
2022/10/21 06:58:18;;;;;;;1.67;0.93;;;;;;;12.13;100.00;101267.75;10626726;27;20122;-79
2022/10/21 07:03:47;;;;;;;1.85;0.60;;;;;;;12.04;100.00;101258.94;10599909;27;20039;-79
2022/10/21 07:08:48;;;;;;;1.27;0.50;;;;;;;12.19;100.00;101262.75;10625777;27;20039;-79
2022/10/21 07:14:00;;;;;;;0.13;0.10;;;;;;;12.35;100.00;101270.06;10611330;27;20047;-79
2022/10/21 07:19:03;;;;;;;1.10;1.05;;;;;;;12.45;100.00;101275.44;10636437;27;20127;-79
2022/10/21 07:24:05;;;;;;;0.52;0.40;;;;;;;12.52;100.00;101277.34;10632424;27;20047;-78
2022/10/21 07:29:06;;;;;;;1.00;0.50;;;;;;;12.62;100.00;101279.28;10596528;27;20031;-79
2022/10/21 07:34:10;;;;;;;1.30;1.13;;;;;;;12.76;100.00;101279.63;10639536;27;20047;-79
2022/10/21 07:39:15;;;;;;;2.42;0.88;;;;;;;13.02;100.00;101266.41;10611196;27;20032;-78
2022/10/21 07:44:18;;;;;;;2.00;0.60;;;;;;;13.26;100.00;101257.41;10612011;27;20469;-79
2022/10/21 07:49:20;;;;;;;2.13;1.55;;;;;;;13.51;100.00;101240.69;10629129;28;20042;-78
2022/10/21 07:54:22;;;;;;;1.90;0.82;;;;;;;13.86;100.00;101191.25;10640771;28;20386;-78
2022/10/21 07:59:24;;;;;;;1.08;0.43;;;;;;;13.90;100.00;101143.84;10646246;28;20043;-78
2022/10/21 08:04:28;;;;;;;1.48;0.43;;;;;;;13.83;100.00;101130.78;10594549;28;20391;-78
2022/10/21 08:09:30;;;;;;;0.35;0.35;;;;;;;14.00;100.00;101128.44;10604939;28;20035;-79
2022/10/21 08:14:32;;;;;;;1.77;0.80;;;;;;;13.99;100.00;101122.41;10600955;28;20067;-79
2022/10/21 08:19:34;;;;;;;1.67;1.02;;;;;;;14.03;100.00;101123.31;10604525;28;20130;-79
2022/10/21 08:24:35;;;;;;;1.08;0.60;;;;;;;14.11;100.00;101108.78;10626672;28;20391;-80
2022/10/21 08:29:42;;;;;;;1.30;1.02;;;;;;;14.41;100.00;101097.06;10632466;27;20122;-79
2022/10/21 08:34:44;;;;;;;0.43;0.38;;;;;;;14.43;100.00;101072.91;10634445;27;20128;-79
2022/10/21 08:39:45;;;;;;;0.30;0.10;;;;;;;14.56;100.00;101071.31;10619656;27;20088;-79
2022/10/21 08:44:54;;;;;;;0.60;0.60;;;;;;;14.59;100.00;101045.44;10643310;27;20031;-78
2022/10/21 08:50:00;;;;;;;0.90;0.50;;;;;;;14.61;100.00;101040.28;10644185;27;20039;-79
2022/10/21 08:55:06;;;;;;;2.38;0.70;;;;;;;14.63;100.00;101035.13;10626769;27;20078;-79
2022/10/21 09:00:15;;;;;;;1.05;0.88;;;;;;;14.67;100.00;101047.28;10612943;27;20027;-78
2022/10/21 09:05:56;;;;;;;2.15;1.38;;;;;;;14.74;100.00;101047.34;10625106;27;20099;-78
2022/10/21 09:11:03;;;;;;;1.98;0.70;;;;;;;14.78;100.00;101056.03;10635267;27;20040;-79
2022/10/21 09:16:13;;;;;;;0.52;0.22;;;;;;;14.90;100.00;101043.22;10628037;27;20039;-79
2022/10/21 09:21:32;;;;;;;0.40;0.28;;;;;;;14.99;100.00;101046.78;10617286;27;20071;-79
2022/10/21 09:26:42;;;;;;;0.32;0.32;;;;;;;15.09;100.00;101038.19;10601044;27;20596;-79
2022/10/21 09:31:44;;;;;;;1.10;1.00;;;;;;;15.11;100.00;101046.88;10647416;27;20556;-79
2022/10/21 09:36:52;;;;;;;1.10;0.63;;;;;;;15.21;100.00;101046.13;10645916;27;20047;-79
2022/10/21 09:41:57;;;;;;;0.40;0.40;;;;;;;15.33;100.00;101054.84;10621871;27;20050;-79
2022/10/21 09:47:24;;;;;;;3.40;0.95;;;;;;;15.32;100.00;101060.91;10641643;27;20039;-79
2022/10/21 09:52:30;;;;;;;0.43;0.40;;;;;;;15.37;100.00;101049.72;10617780;27;20051;-78
2022/10/21 09:57:59;;;;;;;3.00;1.65;;;;;;;15.40;100.00;101048.84;10642854;27;20047;-78
2022/10/21 10:03:00;;;;;;;1.27;0.45;;;;;;;15.47;100.00;101055.84;10616554;27;20108;-79
2022/10/21 10:08:28;;;;;;;0.25;0.25;;;;;;;15.43;100.00;101074.88;10613745;27;20078;-78
2022/10/21 10:13:30;;;;;;;2.33;1.17;;;;;;;15.44;100.00;101080.91;10636565;27;20064;-79
2022/10/21 10:18:32;;;;;;;0.38;0.30;;;;;;;15.41;100.00;101086.09;10639960;27;20052;-78
2022/10/21 10:23:44;;;;;;;0.22;0.20;;;;;;;15.41;100.00;101075.72;10629623;27;20058;-78
2022/10/21 10:29:09;;;;;;;1.98;0.40;;;;;;;15.37;100.00;101080.00;10622977;27;20482;-79
2022/10/21 10:34:20;;;;;;;7.38;0.28;;;;;;;15.29;100.00;101086.84;10634281;27;20084;-79
2022/10/21 10:39:29;;;;;;;0.20;0.20;;;;;;;15.18;100.00;101115.28;10616431;27;20058;-79
2022/10/21 10:44:40;;;;;;;2.10;0.65;;;;;;;14.94;100.00;101147.00;10604877;27;20067;-79
2022/10/21 10:49:42;;;;;;;0.35;0.35;;;;;;;14.51;100.00;101183.63;10600443;27;20059;-80
2022/10/21 10:54:44;;;;;;;1.40;0.73;;;;;;;14.31;100.00;101253.31;10601847;27;20582;-80
2022/10/21 10:59:58;;;;;;;0.75;0.32;;;;;;;14.33;100.00;101324.19;10598060;27;21214;-82
2022/10/21 11:05:35;;;;;;;0.10;0.10;;;;;;;14.28;100.00;101374.19;10602013;27;20086;-81
2022/10/21 11:10:43;;;;;;;0.22;0.08;;;;;;;14.28;100.00;101392.34;10567947;28;20039;-81
2022/10/21 11:15:52;;;;;;;0.47;0.30;;;;;;;14.26;100.00;101407.00;10575546;28;20067;-82
2022/10/21 11:21:17;;;;;;;0.45;0.38;;;;;;;14.31;100.00;101434.72;10548406;28;20138;-81
2022/10/21 11:26:39;;;;;;;0.40;0.20;;;;;;;14.41;100.00;101421.97;10576318;28;20059;-82
2022/10/21 11:31:55;;;;;;;0.20;0.20;;;;;;;14.65;100.00;101430.16;10599718;27;20074;-81
2022/10/21 11:37:48;;;;;;;0.43;0.22;;;;;;;14.77;100.00;101435.59;10622798;27;20095;-81
2022/10/21 11:42:51;;;;;;;2.60;0.77;;;;;;;14.96;100.00;101461.84;10606958;27;20206;-80
2022/10/21 11:48:01;;;;;;;1.13;0.15;;;;;;;15.20;100.00;101457.06;10625952;28;20059;-81
2022/10/21 11:53:25;;;;;;;0.35;0.28;;;;;;;15.29;100.00;101460.66;10621170;28;20043;-80
2022/10/21 11:58:26;;;;;;;4.50;0.95;;;;;;;15.35;100.00;101456.41;10603456;28;20039;-81
2022/10/21 12:03:50;;;;;;;0.82;0.50;;;;;;;15.40;100.00;101443.47;10608178;27;20146;-80
2022/10/21 12:08:59;;;;;;;4.20;0.80;;;;;;;15.37;100.00;101422.69;10582228;27;20071;-81
2022/10/21 12:14:29;;;;;;;0.50;0.25;;;;;;;15.80;100.00;101410.28;10613151;27;20493;-81
2022/10/21 12:19:34;;;;;;;1.42;0.65;;;;;;;15.94;100.00;101383.59;10586071;27;20043;-80
2022/10/21 12:24:45;;;;;;;0.70;0.57;;;;;;;16.24;100.00;101367.44;10601233;27;20051;-80
2022/10/21 12:30:18;;;;;;;0.55;0.40;;;;;;;16.61;100.00;101314.91;10602621;27;20035;-81
2022/10/21 12:35:51;;;;;;;0.93;0.50;;;;;;;16.45;100.00;101247.16;10633799;27;20578;-81
2022/10/21 12:41:25;;;;;;;1.15;0.75;;;;;;;16.42;100.00;101179.53;10635766;27;20042;-81
2022/10/21 12:46:36;;;;;;;0.28;0.20;;;;;;;16.82;100.00;101155.47;10621811;27;20062;-81
2022/10/21 12:51:48;;;;;;;0.47;0.47;;;;;;;16.84;100.00;101117.28;10613814;27;20509;-81
2022/10/21 12:56:58;;;;;;;;;;;;;;;17.16;100.00;101097.47;10636813;27;20047;-82
2022/10/21 13:02:03;;;;;;;0.97;0.50;;;;;;;17.01;100.00;101088.78;10631087;27;19975;-81
2022/10/21 13:07:24;;;;;;;0.22;0.22;;;;;;;16.78;100.00;101084.34;10615900;27;21196;-81
2022/10/21 13:12:28;;;;;;;0.30;0.25;;;;;;;16.80;100.00;101072.19;10613792;27;20422;-81
2022/10/21 13:17:49;;;;;;;0.40;0.30;;;;;;;16.80;100.00;101066.13;10606318;27;20035;-81
2022/10/21 13:23:07;;;;;;;0.52;0.25;;;;;;;16.88;100.00;101067.03;10629051;27;20509;-80
2022/10/21 13:28:13;;;;;;;0.10;0.10;;;;;;;17.32;100.00;101034.09;10619750;27;20039;-80
2022/10/21 13:33:24;;;;;;;0.22;0.22;;;;;;;17.40;100.00;100993.31;10619878;27;20047;-80
2022/10/21 13:38:28;;;;;;;0.30;0.30;;;;;;;17.31;100.00;100969.91;10624336;27;20099;-80
2022/10/21 13:43:38;;;;;;;0.22;0.08;;;;;;;17.22;100.00;100951.69;10592694;27;20120;-81
2022/10/21 13:48:40;;;;;;;;;;;;;;;17.21;100.00;100975.97;10612948;27;20139;-81
2022/10/21 13:53:44;;;;;;;0.20;0.03;;;;;;;16.99;100.00;100968.16;10617797;27;19963;-82
2022/10/21 13:58:47;;;;;;;0.00;0.00;;;;;;;16.92;100.00;100945.59;10621853;27;20050;-81
2022/10/21 14:03:49;;;;;;;0.03;0.03;;;;;;;16.90;100.00;100968.13;10610839;27;20067;-80
2022/10/21 14:08:52;;;;;;;0.30;0.30;;;;;;;17.03;100.00;100969.03;10613770;27;20051;-80
2022/10/21 14:14:04;;;;;;;0.73;0.40;;;;;;;17.28;100.00;100934.28;10615525;27;20065;-81
2022/10/21 14:19:09;;;;;;;0.52;0.50;;;;;;;17.47;100.00;100946.41;10586477;27;20172;-80
2022/10/21 14:24:25;;;;;;;0.13;0.13;;;;;;;17.25;100.00;100946.44;10598891;27;20127;-80
2022/10/21 14:29:31;;;;;;;1.00;0.93;;;;;;;17.08;100.00;100957.78;10604515;27;20140;-80
2022/10/21 14:34:34;;;;;;;0.68;0.40;;;;;;;17.00;100.00;100985.53;10627855;27;20039;-80
2022/10/21 14:39:38;;;;;;;0.80;0.65;;;;;;;17.05;100.00;100999.41;10605051;27;20037;-80
2022/10/21 14:44:42;;;;;;;0.68;0.65;;;;;;;17.04;100.00;101002.88;10597222;27;20728;-79
2022/10/21 14:49:49;;;;;;;2.30;0.55;;;;;;;16.94;100.00;101017.63;10599558;27;20063;-80
2022/10/21 14:55:05;;;;;;;1.67;0.75;;;;;;;16.92;100.00;101023.66;10617851;27;20050;-80
2022/10/21 15:00:20;;;;;;;6.95;1.95;;;;;;;16.89;100.00;101021.03;10616174;27;20074;-79
2022/10/21 15:05:31;;;;;;;0.73;0.43;;;;;;;16.91;100.00;101017.56;10598588;27;20043;-80
2022/10/21 15:10:36;;;;;;;0.70;0.57;;;;;;;16.90;100.00;101027.97;10594381;27;20046;-80
2022/10/21 15:15:42;;;;;;;0.38;0.20;;;;;;;16.90;100.00;101041.84;10624841;27;20502;-80
2022/10/21 15:20:54;;;;;;;1.05;0.70;;;;;;;16.92;100.00;101044.47;10616821;27;20249;-80
2022/10/21 15:26:00;;;;;;;0.93;0.63;;;;;;;17.01;100.00;101034.13;10606234;27;20081;-80
2022/10/21 15:31:07;;;;;;;0.38;0.20;;;;;;;17.09;100.00;101021.94;10619032;27;20040;-80
2022/10/21 15:36:12;;;;;;;0.68;0.50;;;;;;;17.22;100.00;101006.34;10620574;27;20043;-80
2022/10/21 15:41:19;;;;;;;1.17;0.30;;;;;;;17.23;100.00;100997.69;10605376;27;20078;-80
2022/10/21 15:46:22;;;;;;;0.82;0.32;;;;;;;17.07;100.00;101015.91;10625526;27;20478;-80
2022/10/21 15:51:23;;;;;;;0.57;0.50;;;;;;;16.91;100.00;101024.50;10607590;28;20475;-80
2022/10/21 15:56:25;;;;;;;0.00;0.00;;;;;;;16.79;100.00;101034.00;10603373;28;20101;-80
2022/10/21 16:01:27;;;;;;;0.10;0.10;;;;;;;16.76;100.00;101023.63;10608060;27;20448;-80
2022/10/21 16:06:29;;;;;;;0.70;0.55;;;;;;;16.74;100.00;101019.28;10611680;27;20494;-79
2022/10/21 16:11:30;;;;;;;0.52;0.25;;;;;;;16.68;100.00;101033.13;10610248;28;20058;-80
2022/10/21 16:16:47;;;;;;;0.32;0.32;;;;;;;16.50;100.00;101042.59;10618126;27;20047;-79
2022/10/21 16:21:49;;;;;;;0.20;0.10;;;;;;;16.38;100.00;101042.56;10630415;28;20121;-79
2022/10/21 16:26:50;;;;;;;0.10;0.10;;;;;;;16.24;100.00;101050.31;10605816;28;20114;-80
2022/10/21 16:31:54;;;;;;;0.73;0.73;;;;;;;16.14;100.00;101067.59;10625447;28;20579;-80
2022/10/21 16:36:55;;;;;;;0.95;0.22;;;;;;;16.01;100.00;101068.38;10603465;28;20597;-80
2022/10/21 16:41:57;;;;;;;1.23;0.80;;;;;;;15.90;100.00;101080.44;10627445;28;20039;-80
2022/10/21 16:46:58;;;;;;;0.85;0.38;;;;;;;15.75;100.00;101073.38;10616043;28;20066;-80
2022/10/21 16:52:01;;;;;;;2.05;0.60;;;;;;;15.68;100.00;101095.81;10655648;27;20049;-80
2022/10/21 16:57:03;;;;;;;3.20;0.32;;;;;;;15.60;100.00;101108.75;10634878;27;20528;-80
2022/10/21 17:02:18;;;;;;;0.20;0.20;;;;;;;15.45;100.00;101109.47;10625587;27;20050;-79
2022/10/21 17:07:20;;;;;;;1.20;0.50;;;;;;;15.41;100.00;101125.91;10600802;27;20073;-80
2022/10/21 17:12:22;;;;;;;0.60;0.50;;;;;;;15.29;100.00;101136.16;10618916;27;20039;-79
2022/10/21 17:17:24;;;;;;;0.60;0.50;;;;;;;15.23;100.00;101149.94;10602872;27;20474;-80
2022/10/21 17:22:25;;;;;;;0.50;0.50;;;;;;;15.20;100.00;101161.16;10623455;27;20062;-80
2022/10/21 17:27:27;;;;;;;3.35;1.48;;;;;;;15.13;100.00;101174.03;10603986;27;20059;-80
2022/10/21 17:32:28;;;;;;;0.63;0.43;;;;;;;15.09;100.00;101178.31;10607526;27;20072;-80
2022/10/21 17:37:30;;;;;;;0.28;0.22;;;;;;;15.01;100.00;101191.22;10603616;27;20031;-80
2022/10/21 17:42:31;;;;;;;0.10;0.10;;;;;;;14.85;100.00;101208.34;10595035;27;20108;-80
2022/10/21 17:47:33;;;;;;;0.10;0.10;;;;;;;14.73;100.00;101215.94;10625134;27;20070;-80
2022/10/21 17:52:35;;;;;;;0.10;0.10;;;;;;;14.70;100.00;101237.50;10612315;27;20121;-80
2022/10/21 17:57:39;;;;;;;8.00;2.97;;;;;;;14.66;100.00;101234.84;10630492;27;20041;-80
2022/10/21 18:02:40;;;;;;;5.53;3.20;;;;;;;14.62;100.00;101248.59;10630175;27;20130;-80
2022/10/21 18:07:45;;;;;;;3.63;2.75;;;;;;;14.68;100.00;101259.94;10599239;27;20043;-79
2022/10/21 18:12:47;;;;;;;2.30;1.38;;;;;;;14.66;100.00;101269.44;10597613;27;20104;-79
2022/10/21 18:17:48;;;;;;;1.80;0.95;;;;;;;14.59;100.00;101283.13;10604280;27;20070;-80
2022/10/21 18:22:53;;;;;;;0.22;0.22;;;;;;;14.47;100.00;101285.50;10622630;27;20043;-79
2022/10/21 18:27:54;;;;;;;0.17;0.17;;;;;;;14.40;100.00;101294.94;10633129;27;20069;-79
2022/10/21 18:32:57;;;;;;;0.32;0.10;;;;;;;14.25;100.00;101295.53;10613390;27;20040;-80
2022/10/21 18:37:58;;;;;;;0.93;0.40;;;;;;;14.10;100.00;101301.34;10605867;27;20137;-80
2022/10/21 18:43:00;;;;;;;0.70;0.47;;;;;;;14.06;100.00;101310.78;10637358;27;20043;-80
2022/10/21 18:48:01;;;;;;;0.43;0.43;;;;;;;14.10;100.00;101304.78;10634541;27;20134;-80
2022/10/21 18:53:03;;;;;;;0.52;0.22;;;;;;;14.29;100.00;101318.09;10632867;27;20043;-80
2022/10/21 18:58:05;;;;;;;0.65;0.43;;;;;;;14.11;100.00;101352.31;10624694;27;20058;-79
2022/10/21 19:03:06;;;;;;;0.68;0.10;;;;;;;14.01;100.00;101359.00;10619231;27;20054;-80
2022/10/21 19:08:07;;;;;;;0.65;0.45;;;;;;;13.99;100.00;101354.66;10648683;27;20389;-80
2022/10/21 19:13:09;;;;;;;0.20;0.20;;;;;;;13.95;100.00;101352.03;10630686;27;20047;-80
2022/10/21 19:18:11;;;;;;;2.45;1.65;;;;;;;14.01;100.00;101343.47;10660463;27;20060;-79
2022/10/21 19:23:12;;;;;;;0.63;0.50;;;;;;;14.07;100.00;101332.34;10615166;27;20047;-79
2022/10/21 19:28:14;;;;;;;0.17;0.17;;;;;;;14.18;100.00;101320.47;10650756;27;20035;-79
2022/10/21 19:33:15;;;;;;;0.35;0.17;;;;;;;14.22;100.00;101316.22;10635223;27;20051;-79
2022/10/21 19:38:17;;;;;;;0.32;0.13;;;;;;;14.09;100.00;101299.59;10622100;27;20482;-79
2022/10/21 19:43:32;;;;;;;0.40;0.10;;;;;;;14.06;100.00;101299.50;10635465;27;20068;-79
2022/10/21 19:48:35;;;;;;;0.55;0.22;;;;;;;14.02;100.00;101297.72;10635812;27;20050;-80
2022/10/21 19:53:37;;;;;;;0.43;0.30;;;;;;;14.05;100.00;101292.59;10622343;28;20055;-79
2022/10/21 19:58:39;;;;;;;1.25;0.52;;;;;;;13.89;100.00;101284.53;10658060;28;20418;-79
2022/10/21 20:03:43;;;;;;;0.30;0.30;;;;;;;13.87;100.00;101280.19;10657428;28;20035;-80
2022/10/21 20:08:45;;;;;;;0.45;0.38;;;;;;;13.92;100.00;101271.66;10638734;28;20419;-80
2022/10/21 20:13:47;;;;;;;0.50;0.30;;;;;;;13.89;100.00;101275.91;10653816;28;20027;-79
2022/10/21 20:18:49;;;;;;;2.38;1.35;;;;;;;13.95;100.00;101261.34;10655918;28;20375;-80
2022/10/21 20:23:51;;;;;;;2.83;0.47;;;;;;;13.91;100.00;101254.38;10654824;27;20043;-80
2022/10/21 20:28:53;;;;;;;0.22;0.15;;;;;;;13.85;100.00;101259.44;10618857;27;20039;-79
2022/10/21 20:33:55;;;;;;;0.98;0.47;;;;;;;13.86;100.00;101237.88;10629572;27;20039;-79
2022/10/21 20:38:58;;;;;;;0.17;0.10;;;;;;;13.77;100.00;101240.28;10659403;27;20058;-79
2022/10/21 20:44:01;;;;;;;0.15;0.10;;;;;;;13.70;100.00;101243.63;10626328;27;20043;-79
2022/10/21 20:49:05;;;;;;;0.28;0.25;;;;;;;13.79;100.00;101254.16;10617663;27;20111;-79
2022/10/21 20:54:11;;;;;;;0.80;0.35;;;;;;;13.75;100.00;101237.69;10607469;27;20096;-79
2022/10/21 20:59:14;;;;;;;0.20;0.00;;;;;;;13.70;100.00;101253.97;10630466;27;20570;-80
2022/10/21 21:04:19;;;;;;;0.10;0.10;;;;;;;13.68;100.00;101250.47;10627298;27;20159;-79
2022/10/21 21:09:21;;;;;;;0.10;0.10;;;;;;;13.80;100.00;101245.53;10624579;27;20039;-80
2022/10/21 21:14:42;;;;;;;0.00;0.00;;;;;;;13.84;100.00;101249.06;10591323;27;20051;-79
2022/10/21 21:19:44;;;;;;;0.43;0.10;;;;;;;13.66;100.00;101241.84;10624166;27;20076;-79
2022/10/21 21:24:47;;;;;;;0.20;0.10;;;;;;;13.76;100.00;101236.84;10606785;27;20057;-78
2022/10/21 21:29:49;;;;;;;0.55;0.20;;;;;;;13.52;100.00;101239.81;10606277;27;20427;-79
2022/10/21 21:34:54;;;;;;;0.68;0.10;;;;;;;13.36;100.00;101248.13;10605500;27;20502;-79
2022/10/21 21:39:55;;;;;;;0.77;0.38;;;;;;;13.33;100.00;101248.91;10610214;27;20043;-79
2022/10/21 21:44:57;;;;;;;0.10;0.10;;;;;;;13.32;100.00;101253.22;10606329;27;20066;-80
2022/10/21 21:49:58;;;;;;;0.20;0.20;;;;;;;13.34;100.00;101261.00;10623427;27;20035;-80
2022/10/21 21:55:00;;;;;;;0.30;0.10;;;;;;;13.16;100.00;101264.09;10624748;27;20045;-79
2022/10/21 22:00:02;;;;;;;1.55;0.40;;;;;;;13.19;100.00;101266.75;10604710;27;20077;-79
2022/10/21 22:05:06;;;;;;;0.00;0.00;;;;;;;13.11;100.00;101268.31;10615993;27;20062;-80
2022/10/21 22:10:08;;;;;;;0.22;0.15;;;;;;;13.08;100.00;101268.22;10604040;27;20066;-80
2022/10/21 22:15:11;;;;;;;3.95;0.10;;;;;;;13.02;100.00;101274.16;10625657;27;20062;-79
2022/10/21 22:20:32;;;;;;;0.20;0.08;;;;;;;12.87;100.00;101287.63;10613883;27;20089;-80
2022/10/21 22:25:34;;;;;;;0.10;0.10;;;;;;;12.86;100.00;101283.28;10609276;27;20047;-79
2022/10/21 22:30:35;;;;;;;0.10;0.10;;;;;;;12.80;100.00;101280.56;10619056;27;20094;-79
2022/10/21 22:35:38;;;;;;;0.75;0.30;;;;;;;12.80;100.00;101267.63;10617010;27;20070;-79
2022/10/21 22:40:39;;;;;;;0.40;0.32;;;;;;;12.64;100.00;101272.44;10605929;27;20133;-79
2022/10/21 22:45:42;;;;;;;0.20;0.17;;;;;;;12.67;100.00;101276.81;10601294;27;20046;-79
2022/10/21 22:50:48;;;;;;;0.10;0.10;;;;;;;12.59;100.00;101268.91;10615863;27;20039;-79
2022/10/21 22:55:49;;;;;;;0.10;0.10;;;;;;;12.56;100.00;101279.16;10611546;27;20112;-79
2022/10/21 23:00:51;;;;;;;0.47;0.47;;;;;;;12.45;100.00;101285.78;10618792;27;20395;-79
2022/10/21 23:05:53;;;;;;;0.40;0.22;;;;;;;12.49;100.00;101292.75;10592984;27;20043;-79
2022/10/21 23:10:55;;;;;;;0.10;0.10;;;;;;;12.43;100.00;101303.84;10614220;27;20051;-79